Terminal Aerodrome Forecast
Issued by NWS

Home | Current Version | Previous Version | Text Only | Print | Product List | Glossary On
Versions: 1 2 3 4 5 6 7 8 9 10 11 12 13 14 15 16 17
000
FTUS45 KSLC 302325
TAFBCE
TAF
KBCE 302325Z 0100/0124 14008KT P6SM VCSH FEW050 BKN090
     FM010100 27005KT P6SM FEW050 SCT100
     FM011600 14010KT P6SM SCT060 SCT100
     FM012100 23014KT P6SM VCSH SCT060 BKN100=

USA.gov is the U.S. government's official web portal to all federal, state and local government web resources and services.